Time,TemperatureF,DewpointF,PressureIn,WindDirection,WindDirectionDegrees,WindSpeedMPH,WindSpeedGustMPH,Humidity,HourlyPrecipIn,Conditions,Clouds,dailyrainin,SoftwareType,DateUTC
2013-04-20 00:01:00,38.3,23.5,30.07,North,1,0.0,0.0,55,0.00,CLR,,0.00,WeatherDisplay:10.37,2013-04-20 05:01:00,
2013-04-20 00:06:00,38.1,23.4,30.07,North,1,0.0,0.0,55,0.00,CLR,,0.00,WeatherDisplay:10.37,2013-04-20 05:06:00,
2013-04-20 00:07:00,38.1,23.4,30.07,North,1,0.0,0.0,55,0.00,CLR,,0.00,WeatherDisplay:10.37,2013-04-20 05:07:00,
2013-04-20 00:11:00,38.1,23.4,30.07,North,1,0.0,0.0,55,0.00,CLR,,0.00,WeatherDisplay:10.37,2013-04-20 05:11:00,
2013-04-20 00:16:00,38.1,23.4,30.07,North,1,0.0,0.0,55,0.00,CLR,,0.00,WeatherDisplay:10.37,2013-04-20 05:16:00,
2013-04-20 00:51:00,38.1,23.4,30.07,North,1,0.0,0.0,55,0.00,CLR,,0.00,WeatherDisplay:10.37,2013-04-20 05:51:00,
2013-04-20 00:56:00,37.2,22.5,30.09,North,1,0.0,0.0,55,0.00,CLR,,0.00,WeatherDisplay:10.37,2013-04-20 05:56:00,
2013-04-20 01:01:00,37.0,22.4,30.09,North,1,0.0,0.0,55,0.00,CLR,,0.00,WeatherDisplay:10.37,2013-04-20 06:01:00,
2013-04-20 01:06:00,37.0,22.4,30.09,North,1,0.0,0.0,55,0.00,CLR,,0.00,WeatherDisplay:10.37,2013-04-20 06:06:00,
2013-04-20 01:11:00,36.9,22.2,30.09,North,1,0.0,0.0,55,0.00,CLR,,0.00,WeatherDisplay:10.37,2013-04-20 06:11:00,
2013-04-20 01:16:00,36.9,22.2,30.09,North,1,0.0,0.0,55,0.00,CLR,,0.00,WeatherDisplay:10.37,2013-04-20 06:16:00,
2013-04-20 01:21:00,36.9,22.2,30.09,North,1,0.0,0.0,55,0.00,CLR,,0.00,WeatherDisplay:10.37,2013-04-20 06:21:00,
2013-04-20 01:26:00,36.9,22.2,30.09,North,1,0.0,0.0,55,0.00,CLR,,0.00,WeatherDisplay:10.37,2013-04-20 06:26:00,
2013-04-20 01:31:00,36.7,22.0,30.09,North,1,0.0,0.0,55,0.00,CLR,,0.00,WeatherDisplay:10.37,2013-04-20 06:31:00,
2013-04-20 01:36:00,36.5,21.8,30.09,North,1,0.0,0.0,55,0.00,CLR,,0.00,WeatherDisplay:10.37,2013-04-20 06:36:00,
2013-04-20 01:41:00,36.5,21.8,30.09,North,1,0.0,0.0,55,0.00,CLR,,0.00,WeatherDisplay:10.37,2013-04-20 06:41:00,
2013-04-20 01:46:00,36.5,21.8,30.10,North,1,0.0,0.0,55,0.00,CLR,,0.00,WeatherDisplay:10.37,2013-04-20 06:46:00,
2013-04-20 01:51:00,36.3,21.7,30.09,North,1,0.0,0.0,55,0.00,CLR,,0.00,WeatherDisplay:10.37,2013-04-20 06:51:00,
2013-04-20 01:56:00,36.3,21.7,30.10,North,1,0.0,0.0,55,0.00,CLR,,0.00,WeatherDisplay:10.37,2013-04-20 06:56:00,
2013-04-20 02:01:00,36.3,21.7,30.10,North,1,0.0,0.0,55,0.00,CLR,,0.00,WeatherDisplay:10.37,2013-04-20 07:01:00,
2013-04-20 02:06:00,36.3,22.1,30.10,North,1,0.0,0.0,56,0.00,CLR,,0.00,WeatherDisplay:10.37,2013-04-20 07:06:00,
2013-04-20 02:11:00,36.0,21.3,30.09,North,1,0.0,0.0,55,0.00,CLR,,0.00,WeatherDisplay:10.37,2013-04-20 07:11:00,
2013-04-20 02:16:00,36.0,21.8,30.09,North,1,0.0,0.0,56,0.00,CLR,,0.00,WeatherDisplay:10.37,2013-04-20 07:16:00,
2013-04-20 02:21:00,36.0,21.8,30.10,North,1,0.0,0.0,56,0.00,CLR,,0.00,WeatherDisplay:10.37,2013-04-20 07:21:00,
2013-04-20 02:26:00,35.8,21.6,30.10,North,1,0.0,0.0,56,0.00,CLR,,0.00,WeatherDisplay:10.37,2013-04-20 07:26:00,
2013-04-20 02:31:00,35.8,21.6,30.10,North,1,0.0,0.0,56,0.00,CLR,,0.00,WeatherDisplay:10.37,2013-04-20 07:31:00,
2013-04-20 02:36:00,35.6,21.4,30.10,North,1,0.0,0.0,56,0.00,CLR,,0.00,WeatherDisplay:10.37,2013-04-20 07:36:00,
2013-04-20 02:41:00,35.6,21.4,30.09,North,1,0.0,0.0,56,0.00,CLR,,0.00,WeatherDisplay:10.37,2013-04-20 07:41:00,
2013-04-20 02:46:00,35.4,21.3,30.09,North,1,0.0,0.0,56,0.00,CLR,,0.00,WeatherDisplay:10.37,2013-04-20 07:46:00,
2013-04-20 02:51:00,35.2,21.1,30.09,North,1,0.0,0.0,56,0.00,CLR,,0.00,WeatherDisplay:10.37,2013-04-20 07:51:00,
2013-04-20 02:56:00,35.1,20.9,30.09,North,1,0.0,0.0,56,0.00,CLR,,0.00,WeatherDisplay:10.37,2013-04-20 07:56:00,
2013-04-20 03:02:00,34.7,21.0,30.09,North,1,0.0,0.0,57,0.00,CLR,,0.00,WeatherDisplay:10.37,2013-04-20 08:02:00,
2013-04-20 03:07:00,34.7,21.0,30.09,North,1,0.0,0.0,57,0.00,CLR,,0.00,WeatherDisplay:10.37,2013-04-20 08:07:00,
2013-04-20 03:12:00,34.7,21.0,30.09,North,1,0.0,0.0,57,0.00,CLR,,0.00,WeatherDisplay:10.37,2013-04-20 08:12:00,
2013-04-20 03:17:00,34.5,20.8,30.09,North,1,0.0,0.0,57,0.00,CLR,,0.00,WeatherDisplay:10.37,2013-04-20 08:17:00,
2013-04-20 03:22:00,34.3,20.7,30.09,North,1,0.0,0.0,57,0.00,CLR,,0.00,WeatherDisplay:10.37,2013-04-20 08:22:00,
2013-04-20 03:27:00,34.3,20.7,30.09,North,1,0.0,0.0,57,0.00,CLR,,0.00,WeatherDisplay:10.37,2013-04-20 08:27:00,
2013-04-20 03:32:00,34.3,20.7,30.10,North,1,0.0,0.0,57,0.00,CLR,,0.00,WeatherDisplay:10.37,2013-04-20 08:32:00,
2013-04-20 03:37:00,34.2,20.5,30.10,North,1,0.0,0.0,57,0.00,CLR,,0.00,WeatherDisplay:10.37,2013-04-20 08:37:00,
2013-04-20 03:42:00,34.2,20.5,30.11,North,1,0.0,0.0,57,0.00,CLR,,0.00,WeatherDisplay:10.37,2013-04-20 08:42:00,
2013-04-20 03:47:00,34.0,20.3,30.11,North,1,0.0,0.0,57,0.00,CLR,,0.00,WeatherDisplay:10.37,2013-04-20 08:47:00,
2013-04-20 03:52:00,34.2,20.9,30.10,North,1,0.0,0.0,58,0.00,CLR,,0.00,WeatherDisplay:10.37,2013-04-20 08:52:00,
2013-04-20 03:57:00,34.0,20.7,30.10,North,1,0.0,0.0,58,0.00,CLR,,0.00,WeatherDisplay:10.37,2013-04-20 08:57:00,
2013-04-20 04:02:00,34.0,20.7,30.11,North,1,0.0,0.0,58,0.00,CLR,,0.00,WeatherDisplay:10.37,2013-04-20 09:02:00,
2013-04-20 04:07:00,33.8,20.6,30.11,North,1,0.0,0.0,58,0.00,CLR,,0.00,WeatherDisplay:10.37,2013-04-20 09:07:00,
2013-04-20 04:12:00,33.8,20.6,30.12,North,1,0.0,0.0,58,0.00,CLR,,0.00,WeatherDisplay:10.37,2013-04-20 09:12:00,
2013-04-20 04:17:00,33.6,20.4,30.12,North,1,0.0,0.0,58,0.00,CLR,,0.00,WeatherDisplay:10.37,2013-04-20 09:17:00,
2013-04-20 04:22:00,33.6,20.4,30.12,North,1,0.0,0.0,58,0.00,CLR,,0.00,WeatherDisplay:10.37,2013-04-20 09:22:00,
2013-04-20 04:27:00,33.4,20.6,30.12,North,1,0.0,0.0,59,0.00,CLR,,0.00,WeatherDisplay:10.37,2013-04-20 09:27:00,
2013-04-20 04:32:00,33.4,20.6,30.13,North,1,0.0,0.0,59,0.00,CLR,,0.00,WeatherDisplay:10.37,2013-04-20 09:32:00,
2013-04-20 04:37:00,33.3,20.5,30.13,North,1,0.0,0.0,59,0.00,CLR,,0.00,WeatherDisplay:10.37,2013-04-20 09:37:00,
2013-04-20 04:42:00,33.3,20.5,30.13,North,1,0.0,0.0,59,0.00,CLR,,0.00,WeatherDisplay:10.37,2013-04-20 09:42:00,
2013-04-20 04:47:00,33.3,20.5,30.12,North,1,0.0,0.0,59,0.00,CLR,,0.00,WeatherDisplay:10.37,2013-04-20 09:47:00,
2013-04-20 04:52:00,33.3,20.5,30.13,North,1,0.0,0.0,59,0.00,CLR,,0.00,WeatherDisplay:10.37,2013-04-20 09:52:00,
2013-04-20 04:57:00,32.9,20.1,30.13,North,1,0.0,0.0,59,0.00,CLR,,0.00,WeatherDisplay:10.37,2013-04-20 09:57:00,
2013-04-20 05:02:00,32.9,20.1,30.13,North,1,0.0,0.0,59,0.00,CLR,,0.00,WeatherDisplay:10.37,2013-04-20 10:02:00,
2013-04-20 05:07:00,32.9,20.1,30.13,North,1,0.0,0.0,59,0.00,CLR,,0.00,WeatherDisplay:10.37,2013-04-20 10:07:00,
2013-04-20 05:12:00,32.9,20.1,30.12,North,1,0.0,0.0,59,0.00,CLR,,0.00,WeatherDisplay:10.37,2013-04-20 10:12:00,
2013-04-20 05:17:00,32.7,20.4,30.12,North,1,0.0,0.0,60,0.00,CLR,,0.00,WeatherDisplay:10.37,2013-04-20 10:17:00,
2013-04-20 05:22:00,32.7,20.4,30.12,North,1,0.0,0.0,60,0.00,CLR,,0.00,WeatherDisplay:10.37,2013-04-20 10:22:00,
2013-04-20 05:27:00,32.7,20.4,30.12,North,1,0.0,0.0,60,0.00,CLR,,0.00,WeatherDisplay:10.37,2013-04-20 10:27:00,
2013-04-20 05:32:00,32.7,20.4,30.13,North,1,0.0,0.0,60,0.00,CLR,,0.00,WeatherDisplay:10.37,2013-04-20 10:32:00,
2013-04-20 05:37:00,32.7,20.4,30.13,North,1,0.0,0.0,60,0.00,CLR,,0.00,WeatherDisplay:10.37,2013-04-20 10:37:00,
2013-04-20 05:42:00,32.7,20.4,30.13,North,1,0.0,0.0,60,0.00,CLR,,0.00,WeatherDisplay:10.37,2013-04-20 10:42:00,
2013-04-20 05:47:00,32.7,20.4,30.14,North,1,0.0,0.0,60,0.00,CLR,,0.00,WeatherDisplay:10.37,2013-04-20 10:47:00,
2013-04-20 05:52:00,32.5,20.2,30.14,North,1,0.0,0.0,60,0.00,CLR,,0.00,WeatherDisplay:10.37,2013-04-20 10:52:00,
2013-04-20 05:57:00,32.4,20.0,30.14,North,1,0.0,0.0,60,0.00,CLR,,0.00,WeatherDisplay:10.37,2013-04-20 10:57:00,
2013-04-20 06:02:00,32.4,20.0,30.14,North,1,0.0,0.0,60,0.00,CLR,,0.00,WeatherDisplay:10.37,2013-04-20 11:02:00,
2013-04-20 06:07:00,32.2,19.8,30.14,North,1,0.0,0.0,60,0.00,CLR,,0.00,WeatherDisplay:10.37,2013-04-20 11:07:00,
2013-04-20 06:12:00,32.0,19.7,30.14,North,1,0.0,0.0,60,0.00,CLR,,0.00,WeatherDisplay:10.37,2013-04-20 11:12:00,
2013-04-20 06:17:00,32.0,20.1,30.14,North,1,0.0,0.0,61,0.00,CLR,,0.00,WeatherDisplay:10.37,2013-04-20 11:17:00,
2013-04-20 06:22:00,31.8,19.9,30.14,North,1,0.0,0.0,61,0.00,CLR,,0.00,WeatherDisplay:10.37,2013-04-20 11:22:00,
2013-04-20 06:27:00,31.8,19.9,30.15,North,1,0.0,0.0,61,0.00,CLR,,0.00,WeatherDisplay:10.37,2013-04-20 11:27:00,
2013-04-20 06:32:00,31.8,19.9,30.15,North,1,0.0,0.0,61,0.00,CLR,,0.00,WeatherDisplay:10.37,2013-04-20 11:32:00,
2013-04-20 06:37:00,31.8,19.9,30.15,North,1,0.0,0.0,61,0.00,CLR,,0.00,WeatherDisplay:10.37,2013-04-20 11:37:00,
2013-04-20 06:42:00,31.8,19.9,30.16,North,1,0.0,0.0,61,0.00,CLR,,0.00,WeatherDisplay:10.37,2013-04-20 11:42:00,
2013-04-20 06:47:00,31.8,20.3,30.16,North,1,0.0,0.0,62,0.00,CLR,,0.00,WeatherDisplay:10.37,2013-04-20 11:47:00,
2013-04-20 06:52:00,31.8,20.3,30.15,North,1,0.0,0.0,62,0.00,CLR,,0.00,WeatherDisplay:10.37,2013-04-20 11:52:00,
2013-04-20 06:57:00,31.8,20.3,30.16,North,1,0.0,0.0,62,0.00,CLR,,0.00,WeatherDisplay:10.37,2013-04-20 11:57:00,
2013-04-20 07:02:00,31.8,20.3,30.16,North,1,0.0,0.0,62,0.00,CLR,,0.00,WeatherDisplay:10.37,2013-04-20 12:02:00,
2013-04-20 07:07:00,31.8,20.3,30.16,North,1,0.0,0.0,62,0.00,CLR,,0.00,WeatherDisplay:10.37,2013-04-20 12:07:00,
2013-04-20 07:12:00,31.8,20.3,30.16,North,1,0.0,0.0,62,0.00,CLR,,0.00,WeatherDisplay:10.37,2013-04-20 12:12:00,
2013-04-20 07:17:00,32.0,20.4,30.16,North,1,0.0,0.0,62,0.00,CLR,,0.00,WeatherDisplay:10.37,2013-04-20 12:17:00,
2013-04-20 07:22:00,32.0,20.4,30.16,North,1,0.0,0.0,62,0.00,CLR,,0.00,WeatherDisplay:10.37,2013-04-20 12:22:00,
2013-04-20 07:27:00,32.2,20.6,30.16,North,1,0.0,0.0,62,0.00,CLR,,0.00,WeatherDisplay:10.37,2013-04-20 12:27:00,
2013-04-20 07:32:00,32.4,20.8,30.17,North,1,0.0,0.0,62,0.00,CLR,,0.00,WeatherDisplay:10.37,2013-04-20 12:32:00,
2013-04-20 07:37:00,32.7,21.1,30.17,North,1,0.0,0.0,62,0.00,CLR,,0.00,WeatherDisplay:10.37,2013-04-20 12:37:00,
2013-04-20 07:42:00,32.7,21.1,30.17,North,1,0.0,0.0,62,0.00,CLR,,0.00,WeatherDisplay:10.37,2013-04-20 12:42:00,
2013-04-20 07:47:00,33.3,21.6,30.17,North,1,0.0,0.0,62,0.00,CLR,,0.00,WeatherDisplay:10.37,2013-04-20 12:47:00,
2013-04-20 07:52:00,33.6,22.0,30.17,North,1,0.0,0.0,62,0.00,CLR,,0.00,WeatherDisplay:10.37,2013-04-20 12:52:00,
2013-04-20 07:57:00,34.0,22.3,30.17,North,1,0.0,0.0,62,0.00,CLR,,0.00,WeatherDisplay:10.37,2013-04-20 12:57:00,
2013-04-20 08:02:00,34.3,22.7,30.17,North,1,0.0,0.0,62,0.00,CLR,,0.00,WeatherDisplay:10.37,2013-04-20 13:02:00,
2013-04-20 08:07:00,34.7,22.6,30.17,North,1,0.0,0.0,61,0.00,CLR,,0.00,WeatherDisplay:10.37,2013-04-20 13:07:00,
2013-04-20 08:12:00,35.2,23.1,30.17,North,1,0.0,0.0,61,0.00,CLR,,0.00,WeatherDisplay:10.37,2013-04-20 13:12:00,
2013-04-20 08:17:00,35.6,23.5,30.17,North,1,0.0,0.0,61,0.00,CLR,,0.00,WeatherDisplay:10.37,2013-04-20 13:17:00,
2013-04-20 08:22:00,36.0,23.4,30.18,North,1,0.0,0.0,60,0.00,CLR,,0.00,WeatherDisplay:10.37,2013-04-20 13:22:00,
2013-04-20 08:27:00,36.5,23.9,30.18,North,1,0.0,0.0,60,0.00,CLR,,0.00,WeatherDisplay:10.37,2013-04-20 13:27:00,
2013-04-20 08:32:00,37.0,24.0,30.19,North,1,0.0,0.0,59,0.00,CLR,,0.00,WeatherDisplay:10.37,2013-04-20 13:32:00,
2013-04-20 08:37:00,37.6,24.5,30.19,North,1,0.0,0.0,59,0.00,CLR,,0.00,WeatherDisplay:10.37,2013-04-20 13:37:00,
2013-04-20 08:42:00,38.3,24.8,30.19,North,1,0.0,0.0,58,0.00,CLR,,0.00,WeatherDisplay:10.37,2013-04-20 13:42:00,
2013-04-20 08:47:00,39.6,25.6,30.18,North,1,0.0,0.0,57,0.00,CLR,,0.00,WeatherDisplay:10.37,2013-04-20 13:47:00,
2013-04-20 08:52:00,40.1,25.6,30.19,North,1,0.0,0.0,56,0.00,CLR,,0.00,WeatherDisplay:10.37,2013-04-20 13:52:00,
2013-04-20 08:57:00,41.4,26.4,30.19,North,1,0.0,0.0,55,0.00,CLR,,0.00,WeatherDisplay:10.37,2013-04-20 13:57:00,
2013-04-20 09:02:00,42.1,26.6,30.19,North,1,0.0,0.0,54,0.00,CLR,,0.00,WeatherDisplay:10.37,2013-04-20 14:02:00,
2013-04-20 09:07:00,43.0,27.0,30.19,North,1,0.0,0.0,53,0.00,CLR,,0.00,WeatherDisplay:10.37,2013-04-20 14:07:00,
2013-04-20 09:12:00,43.7,27.2,30.19,North,1,0.0,0.0,52,0.00,CLR,,0.00,WeatherDisplay:10.37,2013-04-20 14:12:00,
2013-04-20 09:17:00,44.6,27.6,30.19,North,1,0.0,0.0,51,0.00,CLR,,0.00,WeatherDisplay:10.37,2013-04-20 14:17:00,
2013-04-20 09:22:00,45.3,27.8,30.19,North,1,0.0,0.0,50,0.00,CLR,,0.00,WeatherDisplay:10.37,2013-04-20 14:22:00,
2013-04-20 09:27:00,45.7,27.6,30.19,North,1,0.0,0.0,49,0.00,CLR,,0.00,WeatherDisplay:10.37,2013-04-20 14:27:00,
2013-04-20 09:32:00,46.2,27.6,30.19,North,1,0.0,0.0,48,0.00,CLR,,0.00,WeatherDisplay:10.37,2013-04-20 14:32:00,
2013-04-20 09:37:00,46.8,28.1,30.19,North,1,0.0,0.0,48,0.00,CLR,,0.00,WeatherDisplay:10.37,2013-04-20 14:37:00,
2013-04-20 09:42:00,47.8,29.1,30.19,North,1,0.0,0.0,48,0.00,CLR,,0.00,WeatherDisplay:10.37,2013-04-20 14:42:00,
2013-04-20 09:47:00,48.7,28.9,30.19,North,1,0.0,0.0,46,0.00,CLR,,0.00,WeatherDisplay:10.37,2013-04-20 14:47:00,
2013-04-20 09:52:00,49.6,29.7,30.20,North,1,0.0,0.0,46,0.00,CLR,,0.00,WeatherDisplay:10.37,2013-04-20 14:52:00,
2013-04-20 09:57:00,50.0,29.5,30.20,North,1,0.0,0.0,45,0.00,CLR,,0.00,WeatherDisplay:10.37,2013-04-20 14:57:00,
2013-04-20 10:02:00,50.0,28.9,30.20,North,1,0.0,0.0,44,0.00,CLR,,0.00,WeatherDisplay:10.37,2013-04-20 15:02:00,
2013-04-20 10:07:00,49.1,27.5,30.20,North,1,0.0,0.0,43,0.00,CLR,,0.00,WeatherDisplay:10.37,2013-04-20 15:07:00,
2013-04-20 10:12:00,48.2,27.3,30.20,North,1,0.0,0.0,44,0.00,CLR,,0.00,WeatherDisplay:10.37,2013-04-20 15:12:00,
2013-04-20 10:17:00,48.2,27.3,30.20,North,1,0.0,0.0,44,0.00,CLR,,0.00,WeatherDisplay:10.37,2013-04-20 15:17:00,
2013-04-20 10:22:00,46.6,25.8,30.20,North,1,0.0,0.0,44,0.00,CLR,,0.00,WeatherDisplay:10.37,2013-04-20 15:22:00,
2013-04-20 10:27:00,46.6,26.9,30.21,North,1,0.0,0.0,46,0.00,CLR,,0.00,WeatherDisplay:10.37,2013-04-20 15:27:00,
2013-04-20 10:32:00,47.3,27.5,30.21,North,1,0.0,0.0,46,0.00,CLR,,0.00,WeatherDisplay:10.37,2013-04-20 15:32:00,
2013-04-20 10:37:00,48.0,27.1,30.21,North,1,0.0,0.0,44,0.00,CLR,,0.00,WeatherDisplay:10.37,2013-04-20 15:37:00,
2013-04-20 10:42:00,48.6,28.2,30.21,North,1,0.0,0.0,45,0.00,CLR,,0.00,WeatherDisplay:10.37,2013-04-20 15:42:00,
2013-04-20 10:47:00,49.3,28.3,30.21,North,1,0.0,0.0,44,0.00,CLR,,0.00,WeatherDisplay:10.37,2013-04-20 15:47:00,
2013-04-20 10:52:00,49.5,28.4,30.21,North,1,0.0,0.0,44,0.00,CLR,,0.00,WeatherDisplay:10.37,2013-04-20 15:52:00,
2013-04-20 10:57:00,49.3,27.7,30.21,North,1,0.0,0.0,43,0.00,CLR,,0.00,WeatherDisplay:10.37,2013-04-20 15:57:00,
2013-04-20 11:02:00,48.9,27.4,30.21,North,1,0.0,0.0,43,0.00,CLR,,0.00,WeatherDisplay:10.37,2013-04-20 16:02:00,
2013-04-20 11:07:00,48.9,27.4,30.20,North,1,0.0,0.0,43,0.00,CLR,,0.00,WeatherDisplay:10.37,2013-04-20 16:07:00,
2013-04-20 11:12:00,49.1,28.1,30.20,North,1,0.0,0.0,44,0.00,CLR,,0.00,WeatherDisplay:10.37,2013-04-20 16:12:00,
2013-04-20 11:17:00,48.9,27.4,30.20,North,1,0.0,0.0,43,0.00,CLR,,0.00,WeatherDisplay:10.37,2013-04-20 16:17:00,
2013-04-20 11:22:00,48.0,27.1,30.20,North,1,0.0,0.0,44,0.00,CLR,,0.00,WeatherDisplay:10.37,2013-04-20 16:22:00,
2013-04-20 11:27:00,48.2,27.3,30.20,North,1,0.0,0.0,44,0.00,CLR,,0.00,WeatherDisplay:10.37,2013-04-20 16:27:00,
2013-04-20 11:32:00,48.2,27.3,30.20,North,1,0.0,0.0,44,0.00,CLR,,0.00,WeatherDisplay:10.37,2013-04-20 16:32:00,
2013-04-20 11:37:00,48.2,27.3,30.20,North,1,0.0,0.0,44,0.00,CLR,,0.00,WeatherDisplay:10.37,2013-04-20 16:37:00,
2013-04-20 11:42:00,48.2,26.7,30.20,North,1,0.0,0.0,43,0.00,CLR,,0.00,WeatherDisplay:10.37,2013-04-20 16:42:00,
2013-04-20 11:47:00,48.0,27.1,30.20,North,1,0.0,0.0,44,0.00,CLR,,0.00,WeatherDisplay:10.37,2013-04-20 16:47:00,
2013-04-20 11:52:00,48.2,27.3,30.20,North,1,0.0,0.0,44,0.00,CLR,,0.00,WeatherDisplay:10.37,2013-04-20 16:52:00,
2013-04-20 11:57:00,48.7,27.8,30.20,North,1,0.0,0.0,44,0.00,CLR,,0.00,WeatherDisplay:10.37,2013-04-20 16:57:00,
2013-04-20 12:02:00,49.8,28.8,30.20,North,1,0.0,0.0,44,0.00,CLR,,0.00,WeatherDisplay:10.37,2013-04-20 17:02:00,
2013-04-20 12:07:00,50.7,29.0,30.20,North,1,0.0,0.0,43,0.00,CLR,,0.00,WeatherDisplay:10.37,2013-04-20 17:07:00,
2013-04-20 12:12:00,51.1,29.3,30.20,North,1,0.0,0.0,43,0.00,CLR,,0.00,WeatherDisplay:10.37,2013-04-20 17:12:00,
2013-04-20 12:17:00,51.6,29.8,30.19,North,1,0.0,0.0,43,0.00,CLR,,0.00,WeatherDisplay:10.37,2013-04-20 17:17:00,
2013-04-20 12:22:00,52.3,29.9,30.19,North,1,0.0,0.0,42,0.00,CLR,,0.00,WeatherDisplay:10.37,2013-04-20 17:22:00,
2013-04-20 12:27:00,53.2,30.7,30.19,North,1,0.0,0.0,42,0.00,CLR,,0.00,WeatherDisplay:10.37,2013-04-20 17:27:00,
2013-04-20 12:32:00,53.6,30.4,30.18,North,1,0.0,0.0,41,0.00,CLR,,0.00,WeatherDisplay:10.37,2013-04-20 17:32:00,
2013-04-20 12:37:00,53.8,30.6,30.18,North,1,0.0,0.0,41,0.00,CLR,,0.00,WeatherDisplay:10.37,2013-04-20 17:37:00,
2013-04-20 12:42:00,53.6,30.4,30.18,North,1,0.0,0.0,41,0.00,CLR,,0.00,WeatherDisplay:10.37,2013-04-20 17:42:00,
2013-04-20 12:47:00,53.2,30.1,30.18,North,1,0.0,0.0,41,0.00,CLR,,0.00,WeatherDisplay:10.37,2013-04-20 17:47:00,
2013-04-20 12:52:00,53.2,30.1,30.17,North,1,0.0,0.0,41,0.00,CLR,,0.00,WeatherDisplay:10.37,2013-04-20 17:52:00,
2013-04-20 12:57:00,53.4,30.3,30.17,North,1,0.0,0.0,41,0.00,CLR,,0.00,WeatherDisplay:10.37,2013-04-20 17:57:00,
2013-04-20 13:02:00,53.4,30.3,30.17,North,1,0.0,0.0,41,0.00,CLR,,0.00,WeatherDisplay:10.37,2013-04-20 18:02:00,
2013-04-20 13:07:00,54.0,30.2,30.17,North,1,0.0,0.0,40,0.00,CLR,,0.00,WeatherDisplay:10.37,2013-04-20 18:07:00,
2013-04-20 13:12:00,54.3,30.5,30.17,North,1,0.0,0.0,40,0.00,CLR,,0.00,WeatherDisplay:10.37,2013-04-20 18:12:00,
2013-04-20 13:17:00,54.5,31.3,30.16,North,1,0.0,0.0,41,0.00,CLR,,0.00,WeatherDisplay:10.37,2013-04-20 18:17:00,
2013-04-20 13:22:00,54.9,31.0,30.15,North,1,0.0,0.0,40,0.00,CLR,,0.00,WeatherDisplay:10.37,2013-04-20 18:22:00,
2013-04-20 13:27:00,54.7,30.8,30.15,North,1,0.0,0.0,40,0.00,CLR,,0.00,WeatherDisplay:10.37,2013-04-20 18:27:00,
2013-04-20 13:32:00,54.9,31.0,30.15,North,1,0.0,0.0,40,0.00,CLR,,0.00,WeatherDisplay:10.37,2013-04-20 18:32:00,
2013-04-20 13:37:00,55.2,31.3,30.15,North,1,0.0,0.0,40,0.00,CLR,,0.00,WeatherDisplay:10.37,2013-04-20 18:37:00,
2013-04-20 13:42:00,55.4,31.5,30.15,North,1,0.0,0.0,40,0.00,CLR,,0.00,WeatherDisplay:10.37,2013-04-20 18:42:00,
2013-04-20 13:47:00,55.6,31.6,30.15,North,1,0.0,0.0,40,0.00,CLR,,0.00,WeatherDisplay:10.37,2013-04-20 18:47:00,
2013-04-20 13:52:00,55.2,31.3,30.15,North,1,0.0,0.0,40,0.00,CLR,,0.00,WeatherDisplay:10.37,2013-04-20 18:52:00,
2013-04-20 13:57:00,55.2,31.3,30.15,North,1,0.0,0.0,40,0.00,CLR,,0.00,WeatherDisplay:10.37,2013-04-20 18:57:00,
2013-04-20 14:02:00,55.4,31.5,30.15,North,1,0.0,0.0,40,0.00,CLR,,0.00,WeatherDisplay:10.37,2013-04-20 19:02:00,
2013-04-20 14:07:00,55.4,31.5,30.15,North,1,0.0,0.0,40,0.00,CLR,,0.00,WeatherDisplay:10.37,2013-04-20 19:07:00,
2013-04-20 14:12:00,55.6,31.6,30.15,North,1,0.0,0.0,40,0.00,CLR,,0.00,WeatherDisplay:10.37,2013-04-20 19:12:00,
2013-04-20 14:17:00,55.6,31.6,30.14,North,1,0.0,0.0,40,0.00,CLR,,0.00,WeatherDisplay:10.37,2013-04-20 19:17:00,
2013-04-20 14:22:00,55.6,32.2,30.14,North,1,0.0,0.0,41,0.00,CLR,,0.00,WeatherDisplay:10.37,2013-04-20 19:22:00,
2013-04-20 14:27:00,55.6,32.2,30.14,North,1,0.0,0.0,41,0.00,CLR,,0.00,WeatherDisplay:10.37,2013-04-20 19:27:00,
2013-04-20 14:32:00,55.4,32.1,30.14,North,1,0.0,0.0,41,0.00,CLR,,0.00,WeatherDisplay:10.37,2013-04-20 19:32:00,
2013-04-20 14:37:00,55.6,32.2,30.14,North,1,0.0,0.0,41,0.00,CLR,,0.00,WeatherDisplay:10.37,2013-04-20 19:37:00,
2013-04-20 14:42:00,55.8,32.4,30.14,North,1,0.0,0.0,41,0.00,CLR,,0.00,WeatherDisplay:10.37,2013-04-20 19:42:00,
2013-04-20 14:47:00,55.4,32.1,30.14,North,1,0.0,0.0,41,0.00,CLR,,0.00,WeatherDisplay:10.37,2013-04-20 19:47:00,
2013-04-20 14:52:00,55.4,32.1,30.14,North,1,0.0,0.0,41,0.00,CLR,,0.00,WeatherDisplay:10.37,2013-04-20 19:52:00,
2013-04-20 14:57:00,55.6,32.2,30.14,North,1,0.0,0.0,41,0.00,CLR,,0.00,WeatherDisplay:10.37,2013-04-20 19:57:00,
2013-04-20 15:02:00,55.6,32.8,30.14,North,1,0.0,0.0,42,0.00,CLR,,0.00,WeatherDisplay:10.37,2013-04-20 20:02:00,
2013-04-20 15:07:00,55.8,33.0,30.13,North,1,0.0,0.0,42,0.00,CLR,,0.00,WeatherDisplay:10.37,2013-04-20 20:07:00,
2013-04-20 15:12:00,55.8,33.0,30.13,North,1,0.0,0.0,42,0.00,CLR,,0.00,WeatherDisplay:10.37,2013-04-20 20:12:00,
2013-04-20 15:17:00,55.8,33.0,30.13,North,1,0.0,0.0,42,0.00,CLR,,0.00,WeatherDisplay:10.37,2013-04-20 20:17:00,
2013-04-20 15:22:00,55.8,33.0,30.12,North,1,0.0,0.0,42,0.00,CLR,,0.00,WeatherDisplay:10.37,2013-04-20 20:22:00,
2013-04-20 15:27:00,56.3,33.5,30.12,North,1,0.0,0.0,42,0.00,CLR,,0.00,WeatherDisplay:10.37,2013-04-20 20:27:00,
2013-04-20 15:32:00,56.3,33.5,30.12,North,1,0.0,0.0,42,0.00,CLR,,0.00,WeatherDisplay:10.37,2013-04-20 20:32:00,
2013-04-20 15:37:00,56.3,33.5,30.12,North,1,0.0,0.0,42,0.00,CLR,,0.00,WeatherDisplay:10.37,2013-04-20 20:37:00,
2013-04-20 15:42:00,56.3,33.5,30.12,North,1,0.0,0.0,42,0.00,CLR,,0.00,WeatherDisplay:10.37,2013-04-20 20:42:00,
2013-04-20 15:47:00,56.3,33.5,30.12,North,1,0.0,0.0,42,0.00,CLR,,0.00,WeatherDisplay:10.37,2013-04-20 20:47:00,
2013-04-20 15:52:00,56.3,33.5,30.12,North,1,0.0,0.0,42,0.00,CLR,,0.00,WeatherDisplay:10.37,2013-04-20 20:52:00,
2013-04-20 15:57:00,56.3,33.5,30.11,North,1,0.0,0.0,42,0.00,CLR,,0.00,WeatherDisplay:10.37,2013-04-20 20:57:00,
2013-04-20 16:02:00,56.3,33.5,30.11,North,1,0.0,0.0,42,0.00,CLR,,0.00,WeatherDisplay:10.37,2013-04-20 21:02:00,
2013-04-20 16:07:00,56.3,33.5,30.11,North,1,0.0,0.0,42,0.00,CLR,,0.00,WeatherDisplay:10.37,2013-04-20 21:07:00,
2013-04-20 16:12:00,55.9,33.2,30.11,North,1,0.0,0.0,42,0.00,CLR,,0.00,WeatherDisplay:10.37,2013-04-20 21:12:00,
2013-04-20 16:17:00,55.9,33.7,30.10,North,1,0.0,0.0,43,0.00,CLR,,0.00,WeatherDisplay:10.37,2013-04-20 21:17:00,
2013-04-20 16:22:00,56.1,33.9,30.10,North,1,0.0,0.0,43,0.00,CLR,,0.00,WeatherDisplay:10.37,2013-04-20 21:22:00,
2013-04-20 16:27:00,56.1,33.9,30.10,North,1,0.0,0.0,43,0.00,CLR,,0.00,WeatherDisplay:10.37,2013-04-20 21:27:00,
2013-04-20 16:32:00,55.6,33.4,30.10,North,1,0.0,0.0,43,0.00,CLR,,0.00,WeatherDisplay:10.37,2013-04-20 21:32:00,
2013-04-20 16:37:00,55.6,33.4,30.10,North,1,0.0,0.0,43,0.00,CLR,,0.00,WeatherDisplay:10.37,2013-04-20 21:37:00,
2013-04-20 16:42:00,55.2,32.5,30.10,North,1,0.0,0.0,42,0.00,CLR,,0.00,WeatherDisplay:10.37,2013-04-20 21:42:00,
2013-04-20 16:47:00,55.2,32.5,30.10,North,1,0.0,0.0,42,0.00,CLR,,0.00,WeatherDisplay:10.37,2013-04-20 21:47:00,
2013-04-20 16:52:00,55.0,32.3,30.10,North,1,0.0,0.0,42,0.00,CLR,,0.00,WeatherDisplay:10.37,2013-04-20 21:52:00,
2013-04-20 16:57:00,54.9,32.2,30.10,North,1,0.0,0.0,42,0.00,CLR,,0.00,WeatherDisplay:10.37,2013-04-20 21:57:00,
2013-04-20 17:02:00,54.5,32.4,30.10,North,1,0.0,0.0,43,0.00,CLR,,0.00,WeatherDisplay:10.37,2013-04-20 22:02:00,
2013-04-20 17:07:00,54.5,33.0,30.10,North,1,0.0,0.0,44,0.00,CLR,,0.00,WeatherDisplay:10.37,2013-04-20 22:07:00,
2013-04-20 17:12:00,54.3,32.8,30.10,North,1,0.0,0.0,44,0.00,CLR,,0.00,WeatherDisplay:10.37,2013-04-20 22:12:00,
2013-04-20 17:17:00,54.3,32.8,30.10,North,1,0.0,0.0,44,0.00,CLR,,0.00,WeatherDisplay:10.37,2013-04-20 22:17:00,
2013-04-20 17:22:00,54.1,33.2,30.10,North,1,0.0,0.0,45,0.00,CLR,,0.00,WeatherDisplay:10.37,2013-04-20 22:22:00,
2013-04-20 17:27:00,54.3,33.4,30.10,North,1,0.0,0.0,45,0.00,CLR,,0.00,WeatherDisplay:10.37,2013-04-20 22:27:00,
2013-04-20 17:32:00,54.3,33.4,30.10,North,1,0.0,0.0,45,0.00,CLR,,0.00,WeatherDisplay:10.37,2013-04-20 22:32:00,
2013-04-20 17:37:00,54.0,33.1,30.10,North,1,0.0,0.0,45,0.00,CLR,,0.00,WeatherDisplay:10.37,2013-04-20 22:37:00,
2013-04-20 17:42:00,53.8,32.9,30.10,North,1,0.0,0.0,45,0.00,CLR,,0.00,WeatherDisplay:10.37,2013-04-20 22:42:00,
2013-04-20 17:47:00,53.8,33.5,30.10,North,1,0.0,0.0,46,0.00,CLR,,0.00,WeatherDisplay:10.37,2013-04-20 22:47:00,
2013-04-20 17:52:00,53.6,32.8,30.10,North,1,0.0,0.0,45,0.00,CLR,,0.00,WeatherDisplay:10.37,2013-04-20 22:52:00,
2013-04-20 17:57:00,53.4,32.6,30.10,North,1,0.0,0.0,45,0.00,CLR,,0.00,WeatherDisplay:10.37,2013-04-20 22:57:00,
2013-04-20 18:02:00,53.4,32.6,30.10,North,1,0.0,0.0,45,0.00,CLR,,0.00,WeatherDisplay:10.37,2013-04-20 23:02:00,
2013-04-20 18:07:00,53.4,32.6,30.10,North,1,0.0,0.0,45,0.00,CLR,,0.00,WeatherDisplay:10.37,2013-04-20 23:07:00,
2013-04-20 18:12:00,53.4,32.6,30.10,North,1,0.0,0.0,45,0.00,CLR,,0.00,WeatherDisplay:10.37,2013-04-20 23:12:00,
2013-04-20 18:17:00,53.2,32.4,30.10,North,1,0.0,0.0,45,0.00,CLR,,0.00,WeatherDisplay:10.37,2013-04-20 23:17:00,
2013-04-20 18:22:00,53.2,32.4,30.10,North,1,0.0,0.0,45,0.00,CLR,,0.00,WeatherDisplay:10.37,2013-04-20 23:22:00,
2013-04-20 18:27:00,53.1,32.3,30.10,North,1,0.0,0.0,45,0.00,CLR,,0.00,WeatherDisplay:10.37,2013-04-20 23:27:00,
2013-04-20 18:32:00,53.1,32.8,30.10,North,1,0.0,0.0,46,0.00,CLR,,0.00,WeatherDisplay:10.37,2013-04-20 23:32:00,
2013-04-20 18:37:00,53.1,32.8,30.10,North,1,0.0,0.0,46,0.00,CLR,,0.00,WeatherDisplay:10.37,2013-04-20 23:37:00,
2013-04-20 18:42:00,53.1,32.8,30.10,North,1,0.0,0.0,46,0.00,CLR,,0.00,WeatherDisplay:10.37,2013-04-20 23:42:00,
2013-04-20 18:47:00,52.9,32.6,30.10,North,1,0.0,0.0,46,0.00,CLR,,0.00,WeatherDisplay:10.37,2013-04-20 23:47:00,
2013-04-20 18:52:00,52.7,33.0,30.10,North,1,0.0,0.0,47,0.00,CLR,,0.00,WeatherDisplay:10.37,2013-04-20 23:52:00,
2013-04-20 18:57:00,52.7,33.0,30.10,North,1,0.0,0.0,47,0.00,CLR,,0.00,WeatherDisplay:10.37,2013-04-20 23:57:00,
2013-04-20 19:02:00,52.7,33.0,30.10,North,1,0.0,0.0,47,0.00,CLR,,0.00,WeatherDisplay:10.37,2013-04-21 00:02:00,
2013-04-20 19:07:00,52.7,33.5,30.10,North,1,0.0,0.0,48,0.00,CLR,,0.00,WeatherDisplay:10.37,2013-04-21 00:07:00,
2013-04-20 19:12:00,52.7,33.5,30.10,North,1,0.0,0.0,48,0.00,CLR,,0.00,WeatherDisplay:10.37,2013-04-21 00:12:00,
2013-04-20 19:17:00,52.5,33.4,30.10,North,1,0.0,0.0,48,0.00,CLR,,0.00,WeatherDisplay:10.37,2013-04-21 00:17:00,
2013-04-20 19:22:00,52.3,33.2,30.10,North,1,0.0,0.0,48,0.00,CLR,,0.00,WeatherDisplay:10.37,2013-04-21 00:22:00,
2013-04-20 19:27:00,52.2,33.0,30.10,North,1,0.0,0.0,48,0.00,CLR,,0.00,WeatherDisplay:10.37,2013-04-21 00:27:00,
2013-04-20 19:32:00,52.0,32.9,30.10,North,1,0.0,0.0,48,0.00,CLR,,0.00,WeatherDisplay:10.37,2013-04-21 00:32:00,
2013-04-20 19:37:00,51.8,33.2,30.10,North,1,0.0,0.0,49,0.00,CLR,,0.00,WeatherDisplay:10.37,2013-04-21 00:37:00,
2013-04-20 19:42:00,51.8,33.2,30.11,North,1,0.0,0.0,49,0.00,CLR,,0.00,WeatherDisplay:10.37,2013-04-21 00:42:00,
2013-04-20 19:47:00,51.6,33.1,30.11,North,1,0.0,0.0,49,0.00,CLR,,0.00,WeatherDisplay:10.37,2013-04-21 00:47:00,
2013-04-20 19:52:00,51.6,33.6,30.11,North,1,0.0,0.0,50,0.00,CLR,,0.00,WeatherDisplay:10.37,2013-04-21 00:52:00,
2013-04-20 19:57:00,51.3,33.2,30.10,North,1,0.0,0.0,50,0.00,CLR,,0.00,WeatherDisplay:10.37,2013-04-21 00:57:00,
2013-04-20 20:02:00,51.3,33.2,30.11,North,1,0.0,0.0,50,0.00,CLR,,0.00,WeatherDisplay:10.37,2013-04-21 01:02:00,
2013-04-20 20:07:00,50.9,32.9,30.11,North,1,0.0,0.0,50,0.00,CLR,,0.00,WeatherDisplay:10.37,2013-04-21 01:07:00,
2013-04-20 20:12:00,50.7,33.2,30.11,North,1,0.0,0.0,51,0.00,CLR,,0.00,WeatherDisplay:10.37,2013-04-21 01:12:00,
2013-04-20 20:17:00,50.5,33.1,30.10,North,1,0.0,0.0,51,0.00,CLR,,0.00,WeatherDisplay:10.37,2013-04-21 01:17:00,
2013-04-20 20:22:00,50.2,32.7,30.11,North,1,0.0,0.0,51,0.00,CLR,,0.00,WeatherDisplay:10.37,2013-04-21 01:22:00,
2013-04-20 20:27:00,50.0,32.6,30.11,North,1,0.0,0.0,51,0.00,CLR,,0.00,WeatherDisplay:10.37,2013-04-21 01:27:00,
2013-04-20 20:32:00,50.0,32.6,30.12,North,1,0.0,0.0,51,0.00,CLR,,0.00,WeatherDisplay:10.37,2013-04-21 01:32:00,
2013-04-20 20:37:00,50.0,32.6,30.12,North,1,0.0,0.0,51,0.00,CLR,,0.00,WeatherDisplay:10.37,2013-04-21 01:37:00,
2013-04-20 20:42:00,49.8,32.4,30.12,North,1,0.0,0.0,51,0.00,CLR,,0.00,WeatherDisplay:10.37,2013-04-21 01:42:00,
2013-04-20 20:47:00,49.8,32.4,30.12,North,1,0.0,0.0,51,0.00,CLR,,0.00,WeatherDisplay:10.37,2013-04-21 01:47:00,
2013-04-20 20:52:00,49.8,32.4,30.12,North,1,0.0,0.0,51,0.00,CLR,,0.00,WeatherDisplay:10.37,2013-04-21 01:52:00,
2013-04-20 20:57:00,49.8,32.9,30.12,North,1,0.0,0.0,52,0.00,CLR,,0.00,WeatherDisplay:10.37,2013-04-21 01:57:00,
2013-04-20 21:02:00,49.6,32.7,30.12,North,1,0.0,0.0,52,0.00,CLR,,0.00,WeatherDisplay:10.37,2013-04-21 02:02:00,
2013-04-20 21:07:00,49.6,32.7,30.12,North,1,0.0,0.0,52,0.00,CLR,,0.00,WeatherDisplay:10.37,2013-04-21 02:07:00,
2013-04-20 21:12:00,49.5,32.6,30.12,North,1,0.0,0.0,52,0.00,CLR,,0.00,WeatherDisplay:10.37,2013-04-21 02:12:00,
2013-04-20 21:17:00,49.3,32.9,30.12,North,1,0.0,0.0,53,0.00,CLR,,0.00,WeatherDisplay:10.37,2013-04-21 02:17:00,
2013-04-20 21:22:00,49.1,32.7,30.12,North,1,0.0,0.0,53,0.00,CLR,,0.00,WeatherDisplay:10.37,2013-04-21 02:22:00,
2013-04-20 21:27:00,49.1,32.7,30.12,North,1,0.0,0.0,53,0.00,CLR,,0.00,WeatherDisplay:10.37,2013-04-21 02:27:00,
2013-04-20 21:32:00,49.1,32.7,30.12,North,1,0.0,0.0,53,0.00,CLR,,0.00,WeatherDisplay:10.37,2013-04-21 02:32:00,
2013-04-20 21:37:00,48.9,32.5,30.12,North,1,0.0,0.0,53,0.00,CLR,,0.00,WeatherDisplay:10.37,2013-04-21 02:37:00,
2013-04-20 21:42:00,48.9,32.5,30.12,North,1,0.0,0.0,53,0.00,CLR,,0.00,WeatherDisplay:10.37,2013-04-21 02:42:00,
2013-04-20 21:47:00,48.7,31.9,30.13,North,1,0.0,0.0,52,0.00,CLR,,0.00,WeatherDisplay:10.37,2013-04-21 02:47:00,
2013-04-20 21:52:00,48.6,31.7,30.13,North,1,0.0,0.0,52,0.00,CLR,,0.00,WeatherDisplay:10.37,2013-04-21 02:52:00,
2013-04-20 21:57:00,48.6,31.7,30.13,North,1,0.0,0.0,52,0.00,CLR,,0.00,WeatherDisplay:10.37,2013-04-21 02:57:00,
2013-04-20 22:02:00,48.2,31.4,30.13,North,1,0.0,0.0,52,0.00,CLR,,0.00,WeatherDisplay:10.37,2013-04-21 03:02:00,
2013-04-20 22:07:00,48.2,31.4,30.14,North,1,0.0,0.0,52,0.00,CLR,,0.00,WeatherDisplay:10.37,2013-04-21 03:07:00,
2013-04-20 22:12:00,48.0,31.7,30.14,North,1,0.0,0.0,53,0.00,CLR,,0.00,WeatherDisplay:10.37,2013-04-21 03:12:00,
2013-04-20 22:17:00,47.8,31.5,30.13,North,1,0.0,0.0,53,0.00,CLR,,0.00,WeatherDisplay:10.37,2013-04-21 03:17:00,
2013-04-20 22:22:00,47.8,31.5,30.13,North,1,0.0,0.0,53,0.00,CLR,,0.00,WeatherDisplay:10.37,2013-04-21 03:22:00,
2013-04-20 22:27:00,47.7,31.4,30.13,North,1,0.0,0.0,53,0.00,CLR,,0.00,WeatherDisplay:10.37,2013-04-21 03:27:00,
2013-04-20 22:32:00,47.7,31.4,30.13,North,1,0.0,0.0,53,0.00,CLR,,0.00,WeatherDisplay:10.37,2013-04-21 03:32:00,
2013-04-20 22:37:00,47.3,31.0,30.13,North,1,0.0,0.0,53,0.00,CLR,,0.00,WeatherDisplay:10.37,2013-04-21 03:37:00,
2013-04-20 22:42:00,47.3,31.0,30.13,North,1,0.0,0.0,53,0.00,CLR,,0.00,WeatherDisplay:10.37,2013-04-21 03:42:00,
2013-04-20 22:47:00,47.3,31.0,30.13,North,1,0.0,0.0,53,0.00,CLR,,0.00,WeatherDisplay:10.37,2013-04-21 03:47:00,
2013-04-20 22:52:00,47.1,30.9,30.13,North,1,0.0,0.0,53,0.00,CLR,,0.00,WeatherDisplay:10.37,2013-04-21 03:52:00,
2013-04-20 22:57:00,47.1,30.9,30.13,North,1,0.0,0.0,53,0.00,CLR,,0.00,WeatherDisplay:10.37,2013-04-21 03:57:00,
2013-04-20 23:01:00,47.1,31.3,30.13,North,1,0.0,0.0,54,0.00,CLR,,0.00,WeatherDisplay:10.37,2013-04-21 04:01:00,
2013-04-20 23:06:00,46.8,31.0,30.13,North,1,0.0,0.0,54,0.00,CLR,,0.00,WeatherDisplay:10.37,2013-04-21 04:06:00,
2013-04-20 23:11:00,46.8,31.0,30.13,North,1,0.0,0.0,54,0.00,CLR,,0.00,WeatherDisplay:10.37,2013-04-21 04:11:00,
2013-04-20 23:16:00,46.8,31.0,30.13,North,1,0.0,0.0,54,0.00,CLR,,0.00,WeatherDisplay:10.37,2013-04-21 04:16:00,
2013-04-20 23:21:00,46.6,31.3,30.13,North,1,0.0,0.0,55,0.00,CLR,,0.00,WeatherDisplay:10.37,2013-04-21 04:21:00,
2013-04-20 23:26:00,46.6,31.3,30.13,North,1,0.0,0.0,55,0.00,CLR,,0.00,WeatherDisplay:10.37,2013-04-21 04:26:00,
2013-04-20 23:31:00,46.4,31.1,30.13,North,1,0.0,0.0,55,0.00,CLR,,0.00,WeatherDisplay:10.37,2013-04-21 04:31:00,
2013-04-20 23:36:00,46.2,30.9,30.13,North,1,0.0,0.0,55,0.00,CLR,,0.00,WeatherDisplay:10.37,2013-04-21 04:36:00,
2013-04-20 23:41:00,46.2,30.9,30.13,North,1,0.0,0.0,55,0.00,CLR,,0.00,WeatherDisplay:10.37,2013-04-21 04:41:00,
2013-04-20 23:46:00,46.2,31.4,30.13,North,1,0.0,0.0,56,0.00,CLR,,0.00,WeatherDisplay:10.37,2013-04-21 04:46:00,
2013-04-20 23:51:00,46.0,31.2,30.13,North,1,0.0,0.0,56,0.00,CLR,,0.00,WeatherDisplay:10.37,2013-04-21 04:51:00,
2013-04-20 23:56:00,46.0,31.2,30.13,North,1,0.0,0.0,56,0.00,CLR,,0.00,WeatherDisplay:10.37,2013-04-21 04:56:00,